Time;durP1;ratioP1;P1;durP2;ratioP2;P2;SDS_P1;SDS_P2;PMS_P1;PMS_P2;Temp;Humidity;BMP_temperature;BMP_pressure;BME280_temperature;BME280_humidity;BME280_pressure;Samples;Min_cycle;Max_cycle;Signal;HPM_P1;HPM_P2
2022/06/21 00:02:27;;;;;;;7.82;2.90;;;24.50;86.00;;;;;;5034370;28;20438;-75
2022/06/21 00:04:56;;;;;;;7.82;3.10;;;24.50;86.80;;;;;;5034577;28;20037;-75
2022/06/21 00:07:26;;;;;;;5.85;3.28;;;24.40;87.80;;;;;;5032082;28;20057;-76
2022/06/21 00:09:53;;;;;;;5.45;2.90;;;24.30;88.70;;;;;;5037480;28;20132;-76
2022/06/21 00:12:21;;;;;;;6.55;2.80;;;24.30;88.80;;;;;;5025818;28;20053;-76
2022/06/21 00:14:49;;;;;;;4.43;2.85;;;24.30;89.30;;;;;;5054340;28;20516;-76
2022/06/21 00:17:19;;;;;;;4.97;3.08;;;24.30;89.10;;;;;;5034724;28;20065;-76
2022/06/21 00:19:47;;;;;;;7.45;2.88;;;24.30;89.10;;;;;;5048773;28;20053;-75
2022/06/21 00:22:17;;;;;;;6.85;3.03;;;24.30;88.60;;;;;;5037693;28;20416;-74
2022/06/21 00:24:45;;;;;;;4.28;2.83;;;24.20;88.90;;;;;;5031080;28;20507;-76
2022/06/21 00:27:15;;;;;;;4.13;2.50;;;24.20;88.90;;;;;;5030600;28;20037;-76
2022/06/21 00:29:43;;;;;;;8.13;3.70;;;24.30;89.00;;;;;;5036781;28;20045;-76
2022/06/21 00:32:13;;;;;;;5.38;3.08;;;24.30;88.80;;;;;;5029770;28;20444;-76
2022/06/21 00:34:41;;;;;;;6.50;3.00;;;24.30;89.10;;;;;;5037531;28;20045;-77
2022/06/21 00:37:29;;;;;;;7.30;2.90;;;24.30;89.30;;;;;;5023041;28;20504;-76
2022/06/21 00:39:56;;;;;;;6.57;3.28;;;24.30;89.40;;;;;;5041133;28;20037;-77
2022/06/21 00:42:28;;;;;;;5.07;2.80;;;24.30;89.50;;;;;;5037200;28;20034;-77
2022/06/21 00:45:05;;;;;;;7.28;3.70;;;24.20;89.80;;;;;;5034155;28;20039;-76
2022/06/21 00:47:43;;;;;;;7.40;3.03;;;24.20;90.00;;;;;;5033076;28;20059;-77
2022/06/21 00:50:21;;;;;;;7.63;2.88;;;24.30;88.90;;;;;;5039306;28;20045;-77
2022/06/21 00:53:14;;;;;;;4.03;3.00;;;24.30;88.70;;;;;;5031941;28;20055;-77
2022/06/21 00:55:55;;;;;;;4.82;2.88;;;24.20;88.80;;;;;;5038274;28;20380;-77
2022/06/21 00:58:26;;;;;;;8.50;3.58;;;24.10;89.70;;;;;;5035297;28;20057;-76
2022/06/21 01:00:58;;;;;;;7.82;2.63;;;24.10;87.10;;;;;;5033796;28;20045;-76
2022/06/21 01:03:30;;;;;;;5.90;2.78;;;24.10;85.10;;;;;;5022048;28;20052;-77
2022/06/21 01:06:03;;;;;;;4.47;2.40;;;24.10;83.10;;;;;;5032198;28;20137;-77
2022/06/21 01:08:35;;;;;;;5.28;2.03;;;24.00;81.50;;;;;;5019154;28;20055;-76
2022/06/21 01:11:10;;;;;;;3.47;2.17;;;24.00;82.10;;;;;;5024167;28;20045;-76
2022/06/21 01:13:43;;;;;;;5.88;2.13;;;24.00;81.50;;;;;;5037689;28;20073;-77
2022/06/21 01:16:12;;;;;;;3.38;2.05;;;24.00;81.50;;;;;;5037102;28;20912;-77
2022/06/21 01:18:42;;;;;;;6.60;2.53;;;24.00;81.40;;;;;;5041554;28;20051;-76
2022/06/21 01:21:11;;;;;;;3.65;2.42;;;24.10;82.90;;;;;;5014163;28;20050;-77
2022/06/21 01:23:51;;;;;;;6.18;2.33;;;24.00;83.90;;;;;;5039788;28;20504;-77
2022/06/21 01:26:59;;;;;;;2.88;1.33;;;24.00;82.10;;;;;;5022992;28;20068;-77
2022/06/21 01:29:30;;;;;;;2.75;1.08;;;23.80;76.90;;;;;;5019835;28;20047;-76
2022/06/21 01:32:01;;;;;;;4.43;1.30;;;23.80;74.80;;;;;;5007977;28;20145;-77
2022/06/21 01:34:29;;;;;;;1.98;1.40;;;23.70;75.10;;;;;;5023997;28;20045;-75
2022/06/21 01:37:08;;;;;;;4.78;1.48;;;23.70;75.10;;;;;;5018810;28;20412;-77
2022/06/21 01:39:48;;;;;;;4.90;1.63;;;23.70;75.60;;;;;;5040323;28;20124;-75
2022/06/21 01:42:26;;;;;;;3.42;1.20;;;23.70;75.60;;;;;;5036863;28;20033;-76
2022/06/21 01:44:57;;;;;;;3.72;1.05;;;23.70;75.30;;;;;;5031367;28;20462;-76
2022/06/21 01:47:35;;;;;;;4.13;1.00;;;23.60;75.10;;;;;;5040354;28;20041;-76
2022/06/21 01:50:07;;;;;;;2.95;1.30;;;23.60;75.10;;;;;;5034473;28;20041;-77
2022/06/21 01:52:36;;;;;;;2.67;1.02;;;23.50;75.00;;;;;;5036090;28;20171;-76
2022/06/21 01:55:14;;;;;;;5.05;1.35;;;23.50;75.40;;;;;;5031192;28;20120;-77
2022/06/21 01:57:41;;;;;;;3.75;1.45;;;23.40;75.50;;;;;;5037376;28;20128;-77
2022/06/21 02:00:09;;;;;;;3.38;1.35;;;23.30;75.90;;;;;;5043906;28;20504;-75
2022/06/21 02:02:45;;;;;;;3.00;1.15;;;23.30;76.20;;;;;;5037039;28;20055;-76
2022/06/21 02:05:18;;;;;;;5.13;1.30;;;23.30;76.60;;;;;;5019578;28;20048;-76
2022/06/21 02:07:52;;;;;;;2.85;1.30;;;23.20;76.80;;;;;;5031079;28;20140;-77
2022/06/21 02:10:26;;;;;;;3.20;1.23;;;23.20;77.80;;;;;;5031763;28;20080;-77
2022/06/21 02:13:02;;;;;;;3.67;1.23;;;23.10;77.60;;;;;;5038015;28;20068;-76
2022/06/21 02:15:46;;;;;;;2.58;1.05;;;23.00;78.60;;;;;;5029291;28;20308;-76
2022/06/21 02:18:17;;;;;;;2.45;1.00;;;23.00;78.40;;;;;;5013195;28;20052;-76
2022/06/21 02:20:54;;;;;;;4.25;1.23;;;23.00;78.20;;;;;;5045004;28;20036;-76
2022/06/21 02:23:22;;;;;;;2.17;1.23;;;23.00;78.70;;;;;;5030589;28;20041;-76
2022/06/21 02:25:52;;;;;;;2.40;1.10;;;22.90;78.60;;;;;;5014557;28;20547;-75
2022/06/21 02:28:21;;;;;;;1.88;1.30;;;22.90;79.40;;;;;;5040899;28;20523;-76
2022/06/21 02:30:52;;;;;;;3.20;1.63;;;22.80;79.30;;;;;;5034463;28;20387;-76
2022/06/21 02:33:25;;;;;;;3.70;2.10;;;22.60;79.90;;;;;;5035966;28;20053;-76
2022/06/21 02:35:59;;;;;;;2.28;1.42;;;22.50;80.50;;;;;;5027217;28;20044;-75
2022/06/21 02:38:39;;;;;;;2.63;1.75;;;22.50;81.10;;;;;;5032632;28;20037;-76
2022/06/21 02:41:22;;;;;;;3.03;1.38;;;22.40;80.80;;;;;;5045909;28;20054;-76
2022/06/21 02:44:06;;;;;;;3.92;2.00;;;22.40;81.00;;;;;;5039085;28;20045;-75
2022/06/21 02:46:38;;;;;;;3.53;1.85;;;22.30;81.90;;;;;;5031031;28;20063;-76
2022/06/21 02:49:09;;;;;;;5.82;1.92;;;22.20;83.00;;;;;;5027898;28;20508;-75
2022/06/21 02:51:42;;;;;;;4.00;1.95;;;22.20;83.90;;;;;;5031290;28;20188;-75
2022/06/21 02:54:33;;;;;;;3.10;1.90;;;22.10;84.20;;;;;;5043144;28;20045;-76
2022/06/21 02:57:07;;;;;;;4.97;1.83;;;22.00;84.30;;;;;;5016773;28;20077;-76
2022/06/21 02:59:38;;;;;;;3.83;1.55;;;22.10;84.50;;;;;;5021259;28;20128;-76
2022/06/21 03:02:12;;;;;;;3.28;2.05;;;22.20;84.20;;;;;;5009904;28;20404;-76
2022/06/21 03:04:47;;;;;;;4.18;2.15;;;22.20;83.90;;;;;;5034284;28;20049;-75
2022/06/21 03:07:47;;;;;;;3.17;2.20;;;22.30;83.90;;;;;;5029450;28;20046;-77
2022/06/21 03:10:22;;;;;;;3.67;2.63;;;22.10;84.40;;;;;;5032847;28;20509;-76
2022/06/21 03:12:58;;;;;;;5.35;1.83;;;22.00;84.20;;;;;;5031517;28;20072;-76
2022/06/21 03:15:25;;;;;;;2.67;1.63;;;21.90;84.90;;;;;;5029619;28;20128;-77
2022/06/21 03:17:57;;;;;;;3.35;1.38;;;21.80;83.50;;;;;;5025807;28;20034;-76
2022/06/21 03:20:26;;;;;;;;;;;21.80;82.20;;;;;;5021585;28;20044;-75
2022/06/21 03:22:54;;;;;;;3.03;1.77;;;21.70;82.20;;;;;;5033881;28;20319;-77
2022/06/21 03:25:46;;;;;;;2.63;1.10;;;21.90;81.40;;;;;;5036177;28;21629;-76
2022/06/21 03:28:41;;;;;;;6.65;1.70;;;21.90;80.30;;;;;;5019940;28;20542;-76
2022/06/21 03:31:31;;;;;;;3.10;1.40;;;21.70;80.10;;;;;;5017620;28;20422;-76
2022/06/21 03:34:20;;;;;;;4.10;1.30;;;21.80;80.40;;;;;;5010674;28;20482;-76
2022/06/21 03:36:49;;;;;;;5.63;1.50;;;21.70;80.00;;;;;;5035214;28;20069;-76
2022/06/21 03:41:42;;;;;;;6.95;1.80;;;21.60;81.10;;;;;;5037108;28;20406;-76
2022/06/21 03:42:16;;;;;;;3.42;1.70;;;21.60;81.20;;;;;;5036451;28;20038;-75
2022/06/21 03:44:48;;;;;;;6.40;1.50;;;21.70;81.30;;;;;;5032457;28;20047;-75
2022/06/21 03:47:24;;;;;;;4.43;1.77;;;21.70;81.30;;;;;;5017229;28;20055;-76
2022/06/21 03:49:54;;;;;;;3.40;1.80;;;21.70;81.80;;;;;;5011429;28;20432;-77
2022/06/21 03:52:42;;;;;;;3.67;1.55;;;21.70;81.90;;;;;;5025951;28;20060;-76
2022/06/21 03:55:15;;;;;;;3.00;1.60;;;21.50;82.30;;;;;;5022294;28;20045;-76
2022/06/21 03:57:54;;;;;;;2.13;1.67;;;21.60;82.60;;;;;;5033163;28;20063;-76
2022/06/21 04:00:21;;;;;;;4.15;1.83;;;21.70;82.20;;;;;;5017111;28;20053;-76
2022/06/21 04:02:51;;;;;;;2.33;1.58;;;21.70;82.70;;;;;;5032944;28;20046;-77
2022/06/21 04:05:43;;;;;;;2.65;1.42;;;21.60;83.10;;;;;;5031249;28;20120;-76
2022/06/21 04:08:22;;;;;;;2.90;1.70;;;21.70;83.20;;;;;;5035570;28;20550;-76
2022/06/21 04:11:06;;;;;;;3.38;1.45;;;21.50;82.30;;;;;;5034690;28;20426;-76
2022/06/21 04:13:48;;;;;;;2.92;1.30;;;21.50;81.90;;;;;;5024595;28;20711;-76
2022/06/21 04:16:25;;;;;;;2.40;1.20;;;21.60;80.90;;;;;;5024046;28;20053;-76
2022/06/21 04:19:21;;;;;;;3.22;1.15;;;21.60;80.90;;;;;;5018743;28;20052;-76
2022/06/21 04:21:56;;;;;;;2.85;1.02;;;21.60;80.50;;;;;;5028130;28;20045;-76
2022/06/21 04:24:47;;;;;;;2.72;1.10;;;21.60;80.20;;;;;;5029686;28;20041;-76
2022/06/21 04:27:33;;;;;;;5.07;1.50;;;21.80;80.60;;;;;;5034741;28;20059;-77
2022/06/21 04:30:11;;;;;;;2.42;1.25;;;21.90;78.50;;;;;;5032467;28;20037;-76
2022/06/21 04:32:48;;;;;;;4.10;1.00;;;21.90;77.70;;;;;;5038431;28;20141;-76
2022/06/21 04:35:29;;;;;;;2.20;1.48;;;22.20;77.80;;;;;;5038699;28;20053;-76
2022/06/21 04:38:05;;;;;;;3.42;0.90;;;22.00;76.70;;;;;;5024926;28;20046;-76
2022/06/21 04:40:45;;;;;;;2.22;1.00;;;22.20;75.90;;;;;;5039234;28;20053;-77
2022/06/21 04:43:17;;;;;;;2.13;0.88;;;22.20;74.80;;;;;;5037138;28;20394;-77
2022/06/21 04:46:04;;;;;;;2.17;0.60;;;22.30;74.90;;;;;;5021185;28;20915;-76
2022/06/21 04:48:44;;;;;;;2.38;0.95;;;22.30;73.80;;;;;;5037439;28;20046;-76
2022/06/21 04:52:06;;;;;;;1.55;0.85;;;22.40;72.90;;;;;;5032975;28;20049;-76
2022/06/21 04:54:36;;;;;;;5.88;0.68;;;22.30;71.60;;;;;;5017963;28;20072;-76
2022/06/21 04:57:09;;;;;;;1.77;0.50;;;22.10;70.30;;;;;;5028399;28;20185;-76
2022/06/21 05:00:00;;;;;;;1.52;0.65;;;22.10;69.20;;;;;;5032609;28;20507;-76
2022/06/21 05:02:31;;;;;;;1.85;0.47;;;22.20;68.50;;;;;;4985266;28;20060;-76
2022/06/21 05:04:58;;;;;;;1.27;0.70;;;22.30;67.90;;;;;;4974806;28;20088;-77
2022/06/21 05:07:31;;;;;;;1.55;0.40;;;22.60;68.90;;;;;;5002026;28;20052;-77
2022/06/21 05:09:59;;;;;;;1.20;0.50;;;22.50;67.10;;;;;;4974480;28;20526;-76
2022/06/21 05:12:40;;;;;;;1.88;0.55;;;22.60;66.30;;;;;;4987452;28;20052;-77
2022/06/21 05:15:16;;;;;;;1.98;0.50;;;22.40;64.80;;;;;;5030652;28;20058;-76
2022/06/21 05:17:47;;;;;;;1.83;0.40;;;22.40;64.80;;;;;;5006330;28;20055;-76
2022/06/21 05:20:20;;;;;;;2.97;0.53;;;22.60;65.30;;;;;;4981494;28;20054;-76
2022/06/21 05:22:52;;;;;;;0.60;0.40;;;22.90;64.60;;;;;;4976959;28;20516;-75
2022/06/21 05:25:24;;;;;;;2.47;0.60;;;23.00;63.00;;;;;;4990564;28;20168;-75
2022/06/21 05:28:10;;;;;;;1.67;0.40;;;23.20;62.70;;;;;;4993056;28;20060;-77
2022/06/21 05:30:42;;;;;;;1.48;0.40;;;22.60;61.30;;;;;;4992618;28;20056;-75
2022/06/21 05:33:14;;;;;;;;;;;22.60;61.60;;;;;;4993462;28;20829;-76
2022/06/21 05:35:42;;;;;;;1.20;0.32;;;23.00;61.50;;;;;;4993733;28;20702;-77
2022/06/21 05:38:21;;;;;;;0.50;0.13;;;23.00;60.60;;;;;;4992467;28;20132;-75
2022/06/21 05:41:06;;;;;;;0.95;0.40;;;23.20;60.00;;;;;;4991499;28;22136;-77
2022/06/21 05:43:50;;;;;;;0.93;0.30;;;23.20;58.80;;;;;;4976806;28;20041;-75
2022/06/21 05:46:22;;;;;;;0.70;0.20;;;22.90;59.70;;;;;;4972200;28;20045;-75
2022/06/21 05:48:55;;;;;;;2.90;0.40;;;23.00;59.60;;;;;;5008205;28;20058;-75
2022/06/21 05:51:28;;;;;;;1.58;0.22;;;23.00;58.90;;;;;;4973769;28;20052;-76
2022/06/21 05:54:01;;;;;;;0.93;0.40;;;23.00;59.40;;;;;;4982858;28;20059;-77
2022/06/21 05:56:31;;;;;;;1.38;0.38;;;23.30;58.50;;;;;;4974098;28;20083;-75
2022/06/21 05:59:02;;;;;;;2.95;0.20;;;23.30;58.00;;;;;;4990668;28;20601;-76
2022/06/21 06:01:43;;;;;;;5.72;0.40;;;23.10;57.20;;;;;;4970385;28;20152;-77
2022/06/21 06:04:22;;;;;;;2.78;0.30;;;23.30;57.50;;;;;;4985326;28;20049;-76
2022/06/21 06:06:53;;;;;;;1.95;0.38;;;23.60;57.20;;;;;;4992969;28;20037;-76
2022/06/21 06:09:25;;;;;;;0.98;0.20;;;23.40;56.20;;;;;;4996505;28;20049;-77
2022/06/21 06:12:01;;;;;;;;;;;23.50;56.60;;;;;;4996044;28;20046;-77
2022/06/21 06:14:45;;;;;;;0.70;0.30;;;23.60;56.70;;;;;;4996307;28;19975;-78
2022/06/21 06:17:41;;;;;;;5.47;0.40;;;23.70;55.70;;;;;;4999622;28;20812;-77
2022/06/21 06:20:29;;;;;;;6.13;0.20;;;24.00;53.60;;;;;;4995514;28;20053;-76
2022/06/21 06:23:15;;;;;;;0.82;0.20;;;24.00;51.60;;;;;;4989606;28;20049;-76
2022/06/21 06:25:47;;;;;;;3.75;0.40;;;23.80;50.90;;;;;;4978312;28;20924;-77
2022/06/21 06:28:28;;;;;;;3.50;0.20;;;23.80;51.30;;;;;;4976316;28;20527;-76
2022/06/21 06:31:06;;;;;;;0.52;0.10;;;23.70;50.50;;;;;;4997125;28;20049;-77
2022/06/21 06:34:00;;;;;;;3.25;0.20;;;23.90;50.30;;;;;;5012278;28;20046;-77
2022/06/21 06:36:54;;;;;;;1.02;0.28;;;24.30;49.90;;;;;;4992616;28;20209;-77
2022/06/21 06:39:30;;;;;;;1.50;0.10;;;24.50;48.50;;;;;;4995134;28;20056;-78
2022/06/21 06:42:34;;;;;;;3.03;0.20;;;24.50;46.10;;;;;;4993382;28;20048;-76
2022/06/21 06:45:06;;;;;;;4.63;0.30;;;24.50;46.10;;;;;;4981877;28;20049;-77
2022/06/21 06:47:37;;;;;;;0.57;0.10;;;24.50;45.00;;;;;;4983432;28;20052;-78
2022/06/21 06:50:16;;;;;;;2.85;0.40;;;24.50;45.20;;;;;;4995815;28;20056;-79
2022/06/21 06:53:11;;;;;;;1.70;0.57;;;24.30;45.90;;;;;;5009870;28;20052;-78
2022/06/21 06:55:46;;;;;;;0.63;0.10;;;24.50;46.20;;;;;;4995183;28;20048;-76
2022/06/21 06:58:38;;;;;;;3.25;0.35;;;24.10;45.80;;;;;;4992826;28;20056;-76
2022/06/21 07:01:15;;;;;;;8.82;0.30;;;24.00;46.80;;;;;;4991883;28;22479;-76
2022/06/21 07:03:49;;;;;;;1.95;0.20;;;24.00;45.90;;;;;;4993720;28;20155;-76
2022/06/21 07:06:39;;;;;;;3.85;0.20;;;23.80;45.70;;;;;;4980963;28;20052;-77
2022/06/21 07:09:46;;;;;;;4.15;0.30;;;23.80;46.10;;;;;;4978644;28;20053;-76
2022/06/21 07:12:24;;;;;;;8.15;0.57;;;23.80;44.30;;;;;;5008382;28;20050;-76
2022/06/21 07:14:53;;;;;;;7.18;0.30;;;23.90;45.60;;;;;;4988265;28;20139;-77
2022/06/21 07:17:45;;;;;;;8.95;0.20;;;23.50;45.30;;;;;;4990403;28;20049;-76
2022/06/21 07:20:40;;;;;;;3.78;0.20;;;23.30;45.40;;;;;;4974419;28;20053;-76
2022/06/21 07:23:19;;;;;;;2.75;0.20;;;23.60;45.60;;;;;;4985701;28;20049;-77
2022/06/21 07:26:02;;;;;;;4.03;0.20;;;23.80;46.30;;;;;;5005847;28;20042;-76
2022/06/21 07:28:41;;;;;;;3.05;0.13;;;24.00;46.00;;;;;;4978198;28;20057;-76
2022/06/21 07:31:20;;;;;;;0.35;0.10;;;23.80;45.10;;;;;;4990454;28;20049;-76
2022/06/21 07:34:09;;;;;;;2.92;0.25;;;24.10;45.70;;;;;;4975784;28;20053;-78
2022/06/21 07:36:56;;;;;;;1.90;0.38;;;24.30;46.80;;;;;;4991626;28;20052;-76
2022/06/21 07:39:39;;;;;;;4.90;0.10;;;24.70;46.80;;;;;;4979884;28;20068;-77
2022/06/21 07:42:27;;;;;;;5.32;0.40;;;24.60;45.30;;;;;;4989938;28;20842;-77
2022/06/21 07:45:11;;;;;;;2.47;0.20;;;24.00;45.70;;;;;;4990340;28;20050;-77
2022/06/21 07:47:45;;;;;;;20.05;0.80;;;23.90;45.80;;;;;;4990001;28;20046;-75
2022/06/21 07:50:35;;;;;;;9.45;0.45;;;23.90;45.60;;;;;;4999331;28;20771;-76
2022/06/21 07:53:27;;;;;;;2.97;0.30;;;23.90;46.70;;;;;;5004355;28;20045;-76
2022/06/21 07:56:06;;;;;;;1.85;0.10;;;23.80;46.60;;;;;;4996920;28;20097;-77
2022/06/21 07:58:55;;;;;;;2.22;0.22;;;24.10;45.90;;;;;;4998191;28;20883;-79
2022/06/21 08:07:27;;;;;;;2.00;0.85;;;24.40;44.60;;;;;;4992515;28;20808;-78
2022/06/21 08:10:07;;;;;;;5.25;0.73;;;24.20;45.00;;;;;;4999224;28;20049;-78
2022/06/21 08:12:34;;;;;;;2.10;0.28;;;24.50;45.50;;;;;;5004521;28;22599;-77
2022/06/21 08:15:03;;;;;;;4.22;0.30;;;24.60;44.90;;;;;;5019242;28;20049;-77
2022/06/21 08:17:52;;;;;;;2.33;0.13;;;24.70;44.40;;;;;;5020947;28;20463;-77
2022/06/21 08:20:23;;;;;;;2.33;0.65;;;24.40;44.10;;;;;;5022965;28;20059;-77
2022/06/21 08:22:55;;;;;;;1.55;0.20;;;24.50;44.30;;;;;;5024684;28;20057;-76
2022/06/21 08:25:44;;;;;;;2.65;0.20;;;24.30;44.50;;;;;;5019099;28;20737;-77
2022/06/21 08:28:25;;;;;;;5.72;0.20;;;24.70;44.50;;;;;;5027904;28;20682;-76
2022/06/21 08:30:58;;;;;;;12.85;0.50;;;24.40;44.40;;;;;;5021935;28;20127;-76
2022/06/21 08:33:52;;;;;;;2.92;0.40;;;24.10;44.50;;;;;;5030166;28;20053;-76
2022/06/21 08:36:44;;;;;;;2.03;0.50;;;24.20;44.90;;;;;;5023070;28;20120;-75
2022/06/21 08:39:19;;;;;;;2.45;0.35;;;24.30;44.10;;;;;;5022643;28;20055;-77
2022/06/21 08:41:55;;;;;;;1.02;0.25;;;24.10;44.00;;;;;;5021189;28;20092;-77
2022/06/21 08:44:50;;;;;;;6.15;1.60;;;24.30;44.10;;;;;;5038210;28;20079;-76
2022/06/21 08:47:32;;;;;;;0.50;0.25;;;24.30;44.10;;;;;;5020143;28;20048;-76
2022/06/21 08:50:24;;;;;;;1.00;0.32;;;24.80;44.90;;;;;;4990899;28;22084;-76
2022/06/21 08:53:03;;;;;;;1.17;0.20;;;24.60;43.50;;;;;;4979810;28;20083;-76
2022/06/21 08:55:39;;;;;;;1.63;0.50;;;24.30;43.70;;;;;;4983704;28;20065;-77
2022/06/21 08:58:12;;;;;;;2.25;0.20;;;24.60;43.90;;;;;;4978559;28;20057;-77
2022/06/21 09:01:02;;;;;;;5.45;0.20;;;24.90;43.80;;;;;;4989861;28;20050;-76
2022/06/21 09:04:03;;;;;;;3.17;0.20;;;24.90;44.50;;;;;;5005017;28;20061;-77
2022/06/21 09:06:58;;;;;;;1.33;0.55;;;25.00;43.50;;;;;;4994504;28;20045;-76
2022/06/21 09:09:37;;;;;;;2.60;0.22;;;25.00;43.40;;;;;;4989796;28;20057;-77
2022/06/21 09:12:23;;;;;;;1.08;0.20;;;25.20;44.00;;;;;;4988669;28;20053;-76
2022/06/21 09:14:58;;;;;;;1.70;0.35;;;25.20;43.40;;;;;;4988427;28;20053;-77
2022/06/21 09:17:28;;;;;;;2.75;0.20;;;25.20;43.20;;;;;;4991946;28;20064;-75
2022/06/21 09:20:21;;;;;;;4.18;0.30;;;25.20;43.80;;;;;;4993147;28;20265;-78
2022/06/21 09:23:19;;;;;;;3.95;0.20;;;24.90;43.00;;;;;;4997214;28;20154;-76
2022/06/21 09:26:09;;;;;;;2.13;0.30;;;24.70;43.50;;;;;;4997610;28;20139;-76
2022/06/21 09:28:55;;;;;;;1.98;0.45;;;24.70;44.90;;;;;;4991429;28;20052;-76
2022/06/21 09:31:30;;;;;;;0.20;0.10;;;24.80;43.70;;;;;;5000087;28;20058;-77
2022/06/21 09:34:10;;;;;;;2.53;0.30;;;25.00;43.00;;;;;;4990150;28;20064;-77
2022/06/21 09:36:55;;;;;;;1.40;0.52;;;25.00;43.60;;;;;;4992911;28;20052;-77
2022/06/21 09:39:55;;;;;;;6.20;0.30;;;24.70;44.10;;;;;;4997696;28;20086;-77
2022/06/21 09:42:29;;;;;;;4.13;0.98;;;25.10;44.70;;;;;;4996268;28;20049;-76
2022/06/21 09:45:09;;;;;;;0.73;0.32;;;25.20;43.40;;;;;;4990653;28;20088;-77
2022/06/21 09:47:53;;;;;;;4.88;0.30;;;25.20;44.00;;;;;;5015470;28;20767;-76
2022/06/21 09:50:46;;;;;;;1.77;0.20;;;25.40;44.60;;;;;;4981943;28;20084;-77
2022/06/21 09:53:36;;;;;;;1.52;0.32;;;25.40;44.10;;;;;;4990965;28;20087;-76
2022/06/21 09:56:16;;;;;;;1.50;0.20;;;25.00;43.40;;;;;;4986730;28;20082;-76
2022/06/21 09:59:08;;;;;;;1.58;0.10;;;24.70;43.20;;;;;;4996623;28;20060;-76
2022/06/21 10:01:46;;;;;;;1.00;0.20;;;25.00;43.10;;;;;;4986975;28;22433;-75
2022/06/21 10:04:25;;;;;;;0.98;0.20;;;24.90;43.10;;;;;;4999071;28;20048;-77
2022/06/21 10:07:04;;;;;;;2.25;0.20;;;25.30;44.70;;;;;;5009329;28;20049;-76
2022/06/21 10:09:55;;;;;;;1.55;0.45;;;25.50;42.90;;;;;;4990635;28;20251;-77
2022/06/21 10:12:45;;;;;;;5.40;0.30;;;25.20;41.90;;;;;;4993581;28;22022;-76
2022/06/21 10:15:36;;;;;;;1.08;0.20;;;25.00;41.50;;;;;;5004021;28;20069;-77
2022/06/21 10:18:37;;;;;;;1.75;0.15;;;24.90;41.10;;;;;;4990252;28;20133;-76
2022/06/21 10:21:19;;;;;;;6.15;0.57;;;24.90;40.00;;;;;;4994556;28;20163;-77
2022/06/21 10:24:05;;;;;;;;;;;25.30;41.20;;;;;;4994732;28;20507;-78
2022/06/21 10:26:59;;;;;;;0.75;0.20;;;25.20;40.40;;;;;;4986847;28;19956;-77
2022/06/21 10:29:59;;;;;;;2.63;0.22;;;25.20;40.30;;;;;;4990736;28;20103;-79
2022/06/21 10:33:04;;;;;;;5.47;0.45;;;25.10;39.50;;;;;;4986396;28;20060;-75
2022/06/21 10:35:51;;;;;;;3.28;0.15;;;25.40;41.80;;;;;;4995649;28;20061;-76
2022/06/21 10:38:21;;;;;;;1.05;0.40;;;25.30;39.40;;;;;;4983987;28;20515;-76
2022/06/21 10:41:09;;;;;;;1.48;0.25;;;25.50;40.00;;;;;;4985322;28;20079;-76
2022/06/21 10:43:36;;;;;;;3.50;0.10;;;25.30;38.10;;;;;;4986754;28;20041;-76
2022/06/21 10:46:24;;;;;;;5.65;0.20;;;25.10;38.20;;;;;;4986850;28;21932;-75
2022/06/21 10:49:18;;;;;;;4.95;0.40;;;25.00;37.10;;;;;;4985594;28;20061;-75
2022/06/21 10:52:03;;;;;;;2.58;0.10;;;25.10;37.20;;;;;;5004874;28;20053;-75
2022/06/21 10:54:30;;;;;;;1.95;0.20;;;25.30;38.30;;;;;;4999287;28;20515;-75
2022/06/21 10:57:32;;;;;;;0.95;0.20;;;25.10;37.40;;;;;;4983716;28;20124;-75
2022/06/21 11:03:37;;;;;;;1.23;0.10;;;25.30;38.40;;;;;;4990390;28;20084;-76
2022/06/21 11:06:37;;;;;;;2.95;0.10;;;25.10;39.30;;;;;;4967325;28;20049;-76
2022/06/21 11:09:32;;;;;;;2.88;0.57;;;25.30;39.40;;;;;;4969041;28;20087;-75
2022/06/21 11:15:16;;;;;;;0.88;0.20;;;25.30;40.50;;;;;;4984629;28;20134;-75
2022/06/21 11:18:17;;;;;;;2.53;0.30;;;25.30;38.20;;;;;;4981754;28;20808;-74
2022/06/21 11:21:07;;;;;;;1.77;0.65;;;25.30;38.70;;;;;;4982236;28;20057;-75
2022/06/21 11:23:40;;;;;;;5.50;0.43;;;25.40;40.60;;;;;;4982886;28;20217;-76
2022/06/21 11:26:31;;;;;;;2.30;0.17;;;25.40;38.70;;;;;;4962734;28;20045;-75
2022/06/21 11:29:26;;;;;;;3.60;0.20;;;25.40;39.10;;;;;;4986481;28;20085;-75
2022/06/21 11:31:59;;;;;;;2.63;0.73;;;25.60;39.60;;;;;;4978780;28;20061;-76
2022/06/21 11:34:52;;;;;;;2.85;1.10;;;25.70;40.40;;;;;;4985592;28;20056;-75
2022/06/21 11:37:22;;;;;;;2.60;0.52;;;25.70;40.50;;;;;;4983908;28;20769;-75
2022/06/21 11:39:56;;;;;;;3.30;0.20;;;25.50;39.60;;;;;;4971077;28;20049;-75
2022/06/21 11:42:40;;;;;;;2.65;0.17;;;25.40;40.00;;;;;;4975014;28;22186;-76
2022/06/21 11:45:27;;;;;;;7.22;0.20;;;25.40;39.10;;;;;;4967766;28;20081;-76
2022/06/21 11:48:12;;;;;;;12.52;4.25;;;25.50;39.30;;;;;;4987413;28;20870;-75
2022/06/21 11:50:58;;;;;;;4.15;0.20;;;25.60;40.30;;;;;;4981900;28;20447;-76
2022/06/21 11:54:03;;;;;;;3.30;1.00;;;25.70;40.60;;;;;;4981938;28;20056;-76
2022/06/21 11:56:50;;;;;;;1.63;0.52;;;25.60;40.40;;;;;;4979329;28;20058;-75
2022/06/21 11:59:40;;;;;;;4.65;1.20;;;25.40;40.10;;;;;;4964515;28;20425;-75
2022/06/21 12:02:41;;;;;;;10.27;0.90;;;25.50;42.40;;;;;;5000123;28;20048;-75
2022/06/21 12:05:23;;;;;;;0.70;0.10;;;25.50;38.70;;;;;;5022820;28;20060;-76
2022/06/21 12:08:08;;;;;;;6.78;1.05;;;25.40;39.00;;;;;;5000096;28;20049;-76
2022/06/21 12:10:38;;;;;;;3.97;0.40;;;25.60;39.50;;;;;;5017662;28;22822;-77
2022/06/21 12:13:48;;;;;;;3.83;1.10;;;25.40;38.90;;;;;;5025620;28;20053;-75
2022/06/21 12:16:21;;;;;;;3.92;0.82;;;25.50;39.30;;;;;;5028045;28;20508;-75
2022/06/21 12:18:58;;;;;;;2.78;0.17;;;25.70;40.00;;;;;;4989561;28;20056;-76
2022/06/21 12:21:29;;;;;;;4.40;0.15;;;25.70;39.60;;;;;;4978576;28;20105;-76
2022/06/21 12:24:04;;;;;;;4.25;0.98;;;25.70;39.70;;;;;;4993818;28;20060;-76
2022/06/21 12:26:34;;;;;;;1.65;0.30;;;25.80;40.00;;;;;;5000619;28;20775;-76
2022/06/21 12:29:06;;;;;;;3.78;0.73;;;25.90;40.60;;;;;;4997452;28;20092;-76
2022/06/21 12:31:44;;;;;;;2.92;0.47;;;25.80;40.10;;;;;;5003391;28;20708;-77
2022/06/21 12:34:17;;;;;;;2.95;0.20;;;25.90;40.60;;;;;;5008077;28;20060;-74
2022/06/21 12:36:59;;;;;;;1.70;0.30;;;25.90;40.60;;;;;;5028931;28;20052;-75
2022/06/21 12:39:39;;;;;;;0.47;0.17;;;25.90;41.20;;;;;;5026533;28;20053;-74
2022/06/21 12:42:06;;;;;;;2.08;0.20;;;25.90;40.90;;;;;;5001838;28;20049;-76
2022/06/21 12:44:54;;;;;;;1.60;0.20;;;25.90;41.80;;;;;;4988249;28;20049;-75
2022/06/21 12:47:35;;;;;;;2.70;0.45;;;25.90;42.30;;;;;;4988420;28;20136;-76
2022/06/21 12:50:40;;;;;;;3.80;0.43;;;25.90;42.50;;;;;;4969501;28;20049;-76
2022/06/21 12:53:18;;;;;;;7.70;0.52;;;25.90;42.20;;;;;;4984949;28;20697;-75
2022/06/21 12:56:22;;;;;;;1.95;0.20;;;25.80;43.00;;;;;;4985449;28;20158;-76
2022/06/21 12:59:20;;;;;;;1.75;0.20;;;26.00;43.50;;;;;;4983678;28;20139;-76
2022/06/21 13:01:59;;;;;;;1.23;0.10;;;26.00;42.70;;;;;;4986704;28;20057;-75
2022/06/21 13:04:41;;;;;;;2.78;0.47;;;26.20;42.80;;;;;;4985028;28;20512;-75
2022/06/21 13:07:27;;;;;;;3.58;0.15;;;26.10;41.10;;;;;;4984155;28;20098;-75
2022/06/21 13:10:07;;;;;;;2.38;0.10;;;26.00;40.60;;;;;;4987030;28;20787;-74
2022/06/21 13:13:03;;;;;;;1.80;0.20;;;25.80;40.40;;;;;;4984670;28;20064;-75
2022/06/21 13:15:49;;;;;;;2.65;0.20;;;25.60;40.20;;;;;;4985099;28;22004;-75
2022/06/21 13:18:31;;;;;;;0.70;0.20;;;25.40;41.50;;;;;;4973051;28;20304;-75
2022/06/21 13:21:20;;;;;;;3.83;0.28;;;25.30;42.90;;;;;;4988258;28;20599;-75
2022/06/21 13:23:50;;;;;;;1.13;0.20;;;25.30;44.40;;;;;;4988584;28;20081;-74
2022/06/21 13:26:46;;;;;;;2.80;0.30;;;25.40;43.10;;;;;;4986297;28;20053;-75
2022/06/21 13:29:37;;;;;;;1.95;0.40;;;25.70;43.40;;;;;;4990595;28;20092;-74
2022/06/21 13:32:13;;;;;;;2.22;0.20;;;25.70;42.70;;;;;;4975503;28;20931;-75
2022/06/21 13:34:47;;;;;;;1.50;0.43;;;25.70;43.00;;;;;;4985867;28;20769;-76
2022/06/21 13:37:22;;;;;;;2.40;0.20;;;25.80;43.20;;;;;;4987740;28;20045;-75
2022/06/21 13:39:49;;;;;;;2.92;0.32;;;25.90;42.30;;;;;;4985614;28;20056;-75
2022/06/21 13:42:40;;;;;;;1.55;0.63;;;26.10;43.70;;;;;;4980121;28;20235;-75
2022/06/21 13:45:26;;;;;;;3.45;0.20;;;26.10;43.50;;;;;;4987753;28;20512;-76
2022/06/21 13:47:56;;;;;;;4.00;0.17;;;26.30;43.40;;;;;;4986389;28;20105;-75
2022/06/21 13:50:31;;;;;;;1.30;0.20;;;26.20;43.30;;;;;;4987952;28;20064;-76
2022/06/21 13:53:16;;;;;;;3.30;0.20;;;26.20;41.90;;;;;;4985649;28;20057;-75
2022/06/21 13:55:57;;;;;;;4.35;0.32;;;26.00;42.10;;;;;;4986594;28;20195;-74
2022/06/21 13:58:38;;;;;;;2.03;0.22;;;26.20;43.20;;;;;;4987905;28;20981;-75
2022/06/21 14:01:29;;;;;;;4.22;0.30;;;26.10;42.00;;;;;;4988638;28;22055;-76
2022/06/21 14:04:02;;;;;;;3.13;0.30;;;26.10;43.10;;;;;;4982954;28;20142;-75
2022/06/21 14:07:03;;;;;;;1.98;0.20;;;26.10;41.70;;;;;;4987761;28;20123;-76
2022/06/21 14:09:30;;;;;;;1.67;0.20;;;26.00;41.60;;;;;;4997042;28;20042;-77